Weather reports worldwide

Advertisment
Lus-La-Croix-Haute, France (7587): temperature & dewpoint: 19.03.2019 07:00:00 - 25.03.2019 07:00:00 (CET)Lus-La-Croix-Haute, France (7587): wind speed & gusts: 19.03.2019 07:00:00 - 25.03.2019 07:00:00 (CET)Lus-La-Croix-Haute, France (7587): wind direction: 19.03.2019 07:00:00 - 25.03.2019 07:00:00 (CET)Lus-La-Croix-Haute, France (7587): precipitation: 19.03.2019 07:00:00 - 25.03.2019 07:00:00 (CET)
Date & Time tt [°C] td [°C] ff [km/h] ff [kn] fx [km/h] fx [kn] dd rr [mm]
25.03.2019 07:00:00 - - - - - - - -
25.03.2019 06:00:00 4,2 1,4 18 10 35 19 NW 0,0
25.03.2019 05:00:00 4,0 0,5 9 5 22 12 N 0,0
25.03.2019 04:00:00 4,9 -0,1 4 2 24 13 NNE 0,0
25.03.2019 03:00:00 4,7 -0,3 5 3 26 14 NE 0,0
25.03.2019 02:00:00 5,2 -0,2 8 4 24 13 NE 0,0
25.03.2019 01:00:00 6,1 0,2 21 11 31 17 NW -
25.03.2019 00:00:00 5,6 -1,6 9 5 22 12 N 0,0
24.03.2019 23:00:00 6,7 -0,8 9 5 18 10 N 0,0
24.03.2019 22:00:00 7,2 -0,5 9 5 28 15 NNW 0,0
24.03.2019 21:00:00 8,0 -0,5 9 5 24 13 NNW 0,0
24.03.2019 20:00:00 9,8 0,1 11 6 26 14 NW 0,0
24.03.2019 19:00:00 11,1 0,8 8 4 31 17 NW -
24.03.2019 18:00:00 13,6 1,6 16 9 37 20 NW 0,0
24.03.2019 17:00:00 17,3 2,1 15 8 35 19 WNW 0,0
24.03.2019 16:00:00 19,2 -1,9 18 10 31 17 WNW 0,0
24.03.2019 15:00:00 20,2 -5,7 9 5 34 18 NNW 0,0
24.03.2019 14:00:00 20,3 -4,1 9 5 28 15 WNW 0,0
24.03.2019 13:00:00 19,9 -4,4 11 6 26 14 S -
24.03.2019 12:00:00 19,3 -3,0 8 4 16 9 SE 0,0
24.03.2019 11:00:00 16,7 -1,4 5 3 13 7 SSE 0,0
24.03.2019 10:00:00 11,4 -1,4 4 2 9 5 S 0,0
24.03.2019 09:00:00 5,2 -0,4 2 1 5 3 S 0,0
24.03.2019 08:00:00 1,1 -1,3 0 0 4 2 N 0,0
24.03.2019 07:00:00 -0,9 -2,6 2 1 5 3 ESE -
24.03.2019 06:00:00 -0,5 -2,4 0 0 5 3 N 0,0
24.03.2019 05:00:00 0,4 -2,2 0 0 4 2 N 0,0
24.03.2019 04:00:00 1,2 -2,0 2 1 4 2 NNW 0,0
24.03.2019 03:00:00 1,7 -1,6 0 0 4 2 N 0,0
24.03.2019 02:00:00 2,7 -1,7 0 0 4 2 N 0,0
24.03.2019 01:00:00 3,3 -1,5 2 1 4 2 S -
24.03.2019 00:00:00 3,8 -1,8 2 1 5 3 W 0,0
23.03.2019 23:00:00 4,6 -1,6 0 0 5 3 N 0,0
23.03.2019 22:00:00 6,3 -1,6 2 1 8 4 SE 0,0
23.03.2019 21:00:00 7,9 -1,6 4 2 11 6 ENE 0,0
23.03.2019 20:00:00 9,3 -2,3 4 2 21 11 N 0,0
23.03.2019 19:00:00 11,0 -2,1 8 4 31 17 NNW -
23.03.2019 18:00:00 13,8 -2,2 16 9 37 20 NW 0,0
23.03.2019 17:00:00 17,1 -3,7 16 9 37 20 NNW 0,0
23.03.2019 16:00:00 17,9 -5,4 16 9 39 21 NNW 0,0
23.03.2019 15:00:00 18,2 -4,5 18 10 37 20 NNW 0,0
23.03.2019 14:00:00 16,6 -4,1 22 12 44 24 WNW 0,0
23.03.2019 13:00:00 16,0 -4,0 22 12 42 23 WNW -
23.03.2019 12:00:00 15,9 -3,1 13 7 39 21 NW 0,0
23.03.2019 11:00:00 14,0 -5,8 16 9 39 21 NNW 0,0
23.03.2019 10:00:00 12,5 -4,6 16 9 34 18 NW 0,0
23.03.2019 09:00:00 10,8 -2,3 4 2 11 6 SE 0,0
23.03.2019 08:00:00 5,0 -3,6 2 1 9 5 ENE 0,0
23.03.2019 07:00:00 3,2 -4,3 2 1 13 7 NE -
23.03.2019 06:00:00 2,8 -4,0 2 1 9 5 E 0,0
23.03.2019 05:00:00 2,6 -4,0 2 1 8 4 N 0,0
23.03.2019 04:00:00 1,8 -4,1 2 1 8 4 SSE 0,0
23.03.2019 03:00:00 1,2 -4,3 2 1 5 3 SW 0,0
23.03.2019 02:00:00 1,7 -4,2 0 0 8 4 N 0,0
23.03.2019 01:00:00 2,2 -4,3 2 1 8 4 NNW -
23.03.2019 00:00:00 2,3 -4,5 0 0 5 3 N 0,0
22.03.2019 23:00:00 3,2 -4,5 0 0 8 4 N 0,0
22.03.2019 22:00:00 4,7 -4,6 4 2 8 4 NE 0,0
22.03.2019 21:00:00 5,6 -5,1 2 1 8 4 SSW 0,0
22.03.2019 20:00:00 8,0 -5,8 4 2 16 9 WNW 0,0
22.03.2019 19:00:00 10,4 -6,9 9 5 28 15 NNW -
22.03.2019 18:00:00 13,5 -9,1 15 8 29 16 NW 0,0
22.03.2019 17:00:00 16,5 -7,2 18 10 41 22 NW 0,0
22.03.2019 16:00:00 17,6 -7,8 16 9 41 22 NNW 0,0
22.03.2019 15:00:00 18,6 -7,0 15 8 42 23 NNW 0,0
22.03.2019 14:00:00 17,4 -7,9 21 11 44 24 WNW 0,0
22.03.2019 13:00:00 17,2 -9,7 13 7 29 16 NW -
22.03.2019 12:00:00 16,2 -11,4 13 7 34 18 NNW 0,0
22.03.2019 11:00:00 14,6 -6,3 13 7 28 15 WNW 0,0
22.03.2019 10:00:00 9,6 -0,3 5 3 11 6 SSE 0,0
22.03.2019 09:00:00 2,6 -1,9 0 0 5 3 N 0,0
22.03.2019 08:00:00 -1,9 -3,8 2 1 8 4 NNW 0,0
22.03.2019 07:00:00 -3,1 -4,8 0 0 4 2 N -
22.03.2019 06:00:00 -3,1 -4,7 0 0 4 2 N 0,0
22.03.2019 05:00:00 -2,6 -4,8 0 0 8 4 N 0,0
22.03.2019 04:00:00 -2,5 -4,4 0 0 4 2 N 0,0
22.03.2019 03:00:00 -1,8 -4,0 0 0 8 4 N 0,0
22.03.2019 02:00:00 -1,7 -4,2 4 2 8 4 SE 0,0
22.03.2019 01:00:00 -0,8 -3,8 0 0 8 4 N -
22.03.2019 00:00:00 -0,1 -3,1 0 0 8 4 N 0,0
21.03.2019 23:00:00 0,8 -3,0 4 2 9 5 WNW 0,0
21.03.2019 22:00:00 1,6 -2,9 4 2 9 5 S 0,0
21.03.2019 21:00:00 3,3 -2,7 4 2 9 5 ENE 0,0
21.03.2019 20:00:00 4,6 -2,5 4 2 18 10 NNE 0,0
21.03.2019 19:00:00 7,0 -3,0 11 6 34 18 NNW -
21.03.2019 18:00:00 9,4 -2,0 18 10 39 21 NW 0,0
21.03.2019 17:00:00 12,6 -0,7 21 11 44 24 NW 0,0
21.03.2019 16:00:00 14,6 -1,9 21 11 41 22 WNW 0,0
21.03.2019 15:00:00 14,6 -3,3 22 12 42 23 WNW 0,0
21.03.2019 14:00:00 15,4 -3,0 15 8 34 18 WNW 0,0
21.03.2019 13:00:00 14,7 -5,2 9 5 21 11 WNW -
21.03.2019 12:00:00 12,3 -7,2 8 4 21 11 WNW 0,0
21.03.2019 11:00:00 10,1 -4,7 4 2 11 6 SW 0,0
21.03.2019 10:00:00 6,8 -3,7 4 2 11 6 SE 0,0
21.03.2019 09:00:00 1,6 -3,7 0 0 9 5 N 0,0
21.03.2019 08:00:00 -2,9 -4,9 4 2 11 6 ESE 0,0
21.03.2019 07:00:00 -4,6 -6,1 2 1 8 4 SE -
21.03.2019 06:00:00 -4,3 -5,7 4 2 8 4 E 0,0
21.03.2019 05:00:00 -4,2 -6,2 2 1 13 7 WNW 0,0
21.03.2019 04:00:00 -4,1 -5,9 5 3 13 7 E 0,0
21.03.2019 03:00:00 -3,8 -6,0 4 2 8 4 SE 0,0
21.03.2019 02:00:00 -2,9 -5,4 0 0 5 3 N 0,0
21.03.2019 01:00:00 -1,9 -5,1 2 1 4 2 ESE -
21.03.2019 00:00:00 -1,2 -4,9 0 0 5 3 N 0,0
20.03.2019 23:00:00 0,1 -4,9 0 0 13 7 N 0,0
20.03.2019 22:00:00 1,2 -4,5 8 4 15 8 NNE 0,0
20.03.2019 21:00:00 1,8 -4,3 8 4 18 10 NNE 0,0
20.03.2019 20:00:00 2,9 -4,1 5 3 13 7 NE 0,0
20.03.2019 19:00:00 3,4 -3,9 8 4 29 16 NNW -
20.03.2019 18:00:00 5,9 -3,7 16 9 37 20 NNW 0,0
20.03.2019 17:00:00 8,1 -3,1 18 10 41 22 NNW 0,0
20.03.2019 16:00:00 9,1 -3,2 18 10 44 24 NW 0,0
20.03.2019 15:00:00 10,0 -3,0 18 10 37 20 NNW 0,0
20.03.2019 14:00:00 9,5 -3,1 15 8 41 22 NW 0,0
20.03.2019 13:00:00 7,8 -3,7 22 12 42 23 WNW -
20.03.2019 12:00:00 6,0 -4,5 22 12 48 26 WNW 0,0
20.03.2019 11:00:00 5,1 -3,7 16 9 34 18 WNW 0,0
20.03.2019 10:00:00 3,2 -4,5 9 5 26 14 NNW 0,0
20.03.2019 09:00:00 2,1 -4,4 4 2 11 6 E 0,0
20.03.2019 08:00:00 -1,8 -5,0 4 2 8 4 E 0,0
20.03.2019 07:00:00 -3,3 -5,9 4 2 11 6 SE -
20.03.2019 06:00:00 -2,8 -6,1 2 1 9 5 NNE 0,0
20.03.2019 05:00:00 -2,6 -5,9 4 2 13 7 SE 0,0
20.03.2019 04:00:00 -2,2 -5,7 4 2 8 4 NNE 0,0
20.03.2019 03:00:00 -2,0 -5,8 4 2 9 5 E 0,0
20.03.2019 02:00:00 -2,0 -6,0 4 2 11 6 NE 0,0
20.03.2019 01:00:00 -1,2 -5,6 4 2 18 10 N -
20.03.2019 00:00:00 -1,2 -5,6 5 3 13 7 NNW 0,0
19.03.2019 23:00:00 -0,6 -5,6 5 3 22 12 N 0,0
19.03.2019 22:00:00 0,0 -5,6 9 5 16 9 N 0,0
19.03.2019 21:00:00 0,9 -6,2 8 4 22 12 N 0,0
19.03.2019 20:00:00 1,7 -6,6 2 1 22 12 N 0,0
19.03.2019 19:00:00 2,5 -6,1 9 5 39 21 NNW -
19.03.2019 18:00:00 4,7 -5,4 15 8 35 19 NNW 0,0
19.03.2019 17:00:00 6,7 -4,1 15 8 50 27 NNW 0,0
19.03.2019 16:00:00 6,8 -3,7 21 11 46 25 NNW 0,0
19.03.2019 15:00:00 6,9 -3,7 21 11 50 27 NNW 0,0
19.03.2019 14:00:00 4,5 -5,6 18 10 48 26 NNW 0,0
19.03.2019 13:00:00 5,2 -3,6 9 5 37 20 NE -
19.03.2019 12:00:00 3,8 -4,2 15 8 35 19 N 0,0
19.03.2019 11:00:00 3,5 -4,9 8 4 29 16 ENE 0,0
19.03.2019 10:00:00 2,5 -4,1 9 5 28 15 NNW 0,0
19.03.2019 09:00:00 0,9 -4,3 8 4 18 10 N 0,0
19.03.2019 08:00:00 -0,3 -4,2 2 1 18 10 SSW 0,0
19.03.2019 07:00:00 -0,6 -4,3 4 2 22 12 NW -

tt = temperature
td = dewpoint
ff = wind speed
fx = gusts
dd = wind direction
rr = precipitation

Next stations